sensor_id;sensor_type;location;lat;lon;timestamp;temperature;humidity
837;DHT22;400;53.550;9.932;2023-11-19T00:00:07;7.40;1.00
837;DHT22;400;53.550;9.932;2023-11-19T00:02:37;7.40;1.00
837;DHT22;400;53.550;9.932;2023-11-19T00:05:04;7.40;1.00
837;DHT22;400;53.550;9.932;2023-11-19T00:07:38;7.40;1.00
837;DHT22;400;53.550;9.932;2023-11-19T00:10:11;7.40;1.00
837;DHT22;400;53.550;9.932;2023-11-19T00:12:43;7.50;1.00
837;DHT22;400;53.550;9.932;2023-11-19T00:15:12;7.50;1.00
837;DHT22;400;53.550;9.932;2023-11-19T00:17:40;7.50;1.00
837;DHT22;400;53.550;9.932;2023-11-19T00:20:10;7.40;1.00
837;DHT22;400;53.550;9.932;2023-11-19T00:22:39;7.40;1.00
837;DHT22;400;53.550;9.932;2023-11-19T00:25:08;7.40;1.00
837;DHT22;400;53.550;9.932;2023-11-19T00:27:35;7.40;1.00
837;DHT22;400;53.550;9.932;2023-11-19T00:30:03;7.40;1.00
837;DHT22;400;53.550;9.932;2023-11-19T00:32:31;7.40;1.00
837;DHT22;400;53.550;9.932;2023-11-19T00:34:58;7.40;1.00
837;DHT22;400;53.550;9.932;2023-11-19T00:37:24;7.50;1.00
837;DHT22;400;53.550;9.932;2023-11-19T00:39:53;7.50;1.00
837;DHT22;400;53.550;9.932;2023-11-19T00:42:21;7.50;1.00
837;DHT22;400;53.550;9.932;2023-11-19T00:44:48;7.50;1.00
837;DHT22;400;53.550;9.932;2023-11-19T00:47:15;7.50;1.00
837;DHT22;400;53.550;9.932;2023-11-19T00:49:43;7.50;1.00
837;DHT22;400;53.550;9.932;2023-11-19T00:52:10;7.50;1.00
837;DHT22;400;53.550;9.932;2023-11-19T00:54:37;7.50;1.00
837;DHT22;400;53.550;9.932;2023-11-19T00:57:05;7.50;1.00
837;DHT22;400;53.550;9.932;2023-11-19T00:59:32;7.50;1.00
837;DHT22;400;53.550;9.932;2023-11-19T01:01:59;7.50;1.00
837;DHT22;400;53.550;9.932;2023-11-19T01:04:28;7.50;1.00
837;DHT22;400;53.550;9.932;2023-11-19T01:06:55;7.50;1.00
837;DHT22;400;53.550;9.932;2023-11-19T01:09:22;7.50;1.00
837;DHT22;400;53.550;9.932;2023-11-19T01:11:50;7.50;1.00
837;DHT22;400;53.550;9.932;2023-11-19T01:14:21;7.50;1.00
837;DHT22;400;53.550;9.932;2023-11-19T01:16:48;7.50;1.00
837;DHT22;400;53.550;9.932;2023-11-19T01:19:15;7.50;1.00
837;DHT22;400;53.550;9.932;2023-11-19T01:21:42;7.50;1.00
837;DHT22;400;53.550;9.932;2023-11-19T01:24:11;7.50;1.00
837;DHT22;400;53.550;9.932;2023-11-19T01:26:43;7.60;1.00
837;DHT22;400;53.550;9.932;2023-11-19T01:29:13;7.60;1.00
837;DHT22;400;53.550;9.932;2023-11-19T01:31:42;7.60;1.00
837;DHT22;400;53.550;9.932;2023-11-19T01:34:10;7.60;1.00
837;DHT22;400;53.550;9.932;2023-11-19T01:36:38;7.60;1.00
837;DHT22;400;53.550;9.932;2023-11-19T01:39:05;7.60;1.00
837;DHT22;400;53.550;9.932;2023-11-19T01:41:34;7.50;1.00
837;DHT22;400;53.550;9.932;2023-11-19T01:44:02;7.60;1.00
837;DHT22;400;53.550;9.932;2023-11-19T01:46:30;7.60;1.00
837;DHT22;400;53.550;9.932;2023-11-19T01:49:00;7.60;1.00
837;DHT22;400;53.550;9.932;2023-11-19T01:51:29;7.60;1.00
837;DHT22;400;53.550;9.932;2023-11-19T01:53:57;7.60;1.00
837;DHT22;400;53.550;9.932;2023-11-19T01:56:26;7.60;1.00
837;DHT22;400;53.550;9.932;2023-11-19T01:58:56;7.60;1.00
837;DHT22;400;53.550;9.932;2023-11-19T02:01:24;7.60;1.00
837;DHT22;400;53.550;9.932;2023-11-19T02:03:51;7.60;1.00
837;DHT22;400;53.550;9.932;2023-11-19T02:06:20;7.60;1.00
837;DHT22;400;53.550;9.932;2023-11-19T02:08:47;7.60;1.00
837;DHT22;400;53.550;9.932;2023-11-19T02:11:14;7.60;1.00
837;DHT22;400;53.550;9.932;2023-11-19T02:13:41;7.70;1.60
837;DHT22;400;53.550;9.932;2023-11-19T02:16:09;7.70;1.00
837;DHT22;400;53.550;9.932;2023-11-19T02:18:37;7.70;1.00
837;DHT22;400;53.550;9.932;2023-11-19T02:21:04;7.60;1.00
837;DHT22;400;53.550;9.932;2023-11-19T02:23:33;7.60;1.00
837;DHT22;400;53.550;9.932;2023-11-19T02:26:05;7.60;1.00
837;DHT22;400;53.550;9.932;2023-11-19T02:28:38;7.60;6.80
837;DHT22;400;53.550;9.932;2023-11-19T02:31:06;7.70;10.20
837;DHT22;400;53.550;9.932;2023-11-19T02:33:35;7.70;9.20
837;DHT22;400;53.550;9.932;2023-11-19T02:36:02;7.70;11.30
837;DHT22;400;53.550;9.932;2023-11-19T02:38:29;7.70;12.50
837;DHT22;400;53.550;9.932;2023-11-19T02:40:56;7.70;13.60
837;DHT22;400;53.550;9.932;2023-11-19T02:43:24;7.70;13.00
837;DHT22;400;53.550;9.932;2023-11-19T02:45:52;7.80;13.40
837;DHT22;400;53.550;9.932;2023-11-19T02:48:21;7.80;13.70
837;DHT22;400;53.550;9.932;2023-11-19T02:50:48;7.80;12.40
837;DHT22;400;53.550;9.932;2023-11-19T02:53:17;7.80;13.70
837;DHT22;400;53.550;9.932;2023-11-19T02:55:47;7.80;15.60
837;DHT22;400;53.550;9.932;2023-11-19T02:58:15;7.80;16.30
837;DHT22;400;53.550;9.932;2023-11-19T03:00:49;7.80;21.20
837;DHT22;400;53.550;9.932;2023-11-19T03:03:24;7.80;22.70
837;DHT22;400;53.550;9.932;2023-11-19T03:05:56;7.80;21.90
837;DHT22;400;53.550;9.932;2023-11-19T03:08:26;7.90;26.20
837;DHT22;400;53.550;9.932;2023-11-19T03:10:53;7.90;28.90
837;DHT22;400;53.550;9.932;2023-11-19T03:13:20;7.90;28.60
837;DHT22;400;53.550;9.932;2023-11-19T03:15:47;8.00;31.80
837;DHT22;400;53.550;9.932;2023-11-19T03:18:17;8.00;36.90
837;DHT22;400;53.550;9.932;2023-11-19T03:20:46;8.00;41.40
837;DHT22;400;53.550;9.932;2023-11-19T03:23:13;8.10;43.00
837;DHT22;400;53.550;9.932;2023-11-19T03:25:40;8.10;45.50
837;DHT22;400;53.550;9.932;2023-11-19T03:28:07;8.10;49.60
837;DHT22;400;53.550;9.932;2023-11-19T03:30:36;8.10;49.20
837;DHT22;400;53.550;9.932;2023-11-19T03:33:03;8.10;48.90
837;DHT22;400;53.550;9.932;2023-11-19T03:35:30;8.10;50.60
837;DHT22;400;53.550;9.932;2023-11-19T03:38:00;8.20;51.90
837;DHT22;400;53.550;9.932;2023-11-19T03:40:28;8.10;54.30
837;DHT22;400;53.550;9.932;2023-11-19T03:42:56;8.20;55.90
837;DHT22;400;53.550;9.932;2023-11-19T03:45:23;8.20;56.90
837;DHT22;400;53.550;9.932;2023-11-19T03:47:50;8.20;58.20
837;DHT22;400;53.550;9.932;2023-11-19T03:50:18;8.20;58.50
837;DHT22;400;53.550;9.932;2023-11-19T03:52:49;8.30;56.00
837;DHT22;400;53.550;9.932;2023-11-19T03:55:19;8.30;53.50
837;DHT22;400;53.550;9.932;2023-11-19T03:57:49;8.30;54.80
837;DHT22;400;53.550;9.932;2023-11-19T04:00:17;8.30;56.40
837;DHT22;400;53.550;9.932;2023-11-19T04:02:46;8.30;53.60
837;DHT22;400;53.550;9.932;2023-11-19T04:05:13;8.40;53.40
837;DHT22;400;53.550;9.932;2023-11-19T04:07:44;8.40;52.00
837;DHT22;400;53.550;9.932;2023-11-19T04:10:11;8.40;50.50
837;DHT22;400;53.550;9.932;2023-11-19T04:12:39;8.40;49.90
837;DHT22;400;53.550;9.932;2023-11-19T04:15:09;8.40;48.30
837;DHT22;400;53.550;9.932;2023-11-19T04:17:40;8.40;45.40
837;DHT22;400;53.550;9.932;2023-11-19T04:20:10;8.40;41.70
837;DHT22;400;53.550;9.932;2023-11-19T04:22:39;8.40;42.60
837;DHT22;400;53.550;9.932;2023-11-19T04:25:07;8.50;45.40
837;DHT22;400;53.550;9.932;2023-11-19T04:27:34;8.50;44.70
837;DHT22;400;53.550;9.932;2023-11-19T04:30:03;8.50;44.30
837;DHT22;400;53.550;9.932;2023-11-19T04:32:31;8.50;53.70
837;DHT22;400;53.550;9.932;2023-11-19T04:34:58;8.50;54.50
837;DHT22;400;53.550;9.932;2023-11-19T04:37:24;8.50;56.00
837;DHT22;400;53.550;9.932;2023-11-19T04:39:51;8.50;56.00
837;DHT22;400;53.550;9.932;2023-11-19T04:42:18;8.60;54.70
837;DHT22;400;53.550;9.932;2023-11-19T04:44:45;8.60;54.90
837;DHT22;400;53.550;9.932;2023-11-19T04:47:14;8.60;58.60
837;DHT22;400;53.550;9.932;2023-11-19T04:49:41;8.60;57.70
837;DHT22;400;53.550;9.932;2023-11-19T04:52:09;8.60;59.50
837;DHT22;400;53.550;9.932;2023-11-19T04:54:41;8.60;56.90
837;DHT22;400;53.550;9.932;2023-11-19T04:57:11;8.70;63.60
837;DHT22;400;53.550;9.932;2023-11-19T04:59:38;8.70;68.70
837;DHT22;400;53.550;9.932;2023-11-19T05:02:05;8.70;67.60
837;DHT22;400;53.550;9.932;2023-11-19T05:04:34;8.70;68.30
837;DHT22;400;53.550;9.932;2023-11-19T05:07:01;8.70;72.30
837;DHT22;400;53.550;9.932;2023-11-19T05:09:28;8.80;73.30
837;DHT22;400;53.550;9.932;2023-11-19T05:11:56;8.80;74.10
837;DHT22;400;53.550;9.932;2023-11-19T05:14:23;8.80;79.90
837;DHT22;400;53.550;9.932;2023-11-19T05:16:50;8.80;82.50
837;DHT22;400;53.550;9.932;2023-11-19T05:19:17;8.90;85.20
837;DHT22;400;53.550;9.932;2023-11-19T05:21:45;8.90;88.60
837;DHT22;400;53.550;9.932;2023-11-19T05:24:12;8.90;91.30
837;DHT22;400;53.550;9.932;2023-11-19T05:26:39;9.00;98.50
837;DHT22;400;53.550;9.932;2023-11-19T05:29:07;9.00;99.90
837;DHT22;400;53.550;9.932;2023-11-19T05:31:34;9.00;99.90
837;DHT22;400;53.550;9.932;2023-11-19T05:34:01;9.10;99.90
837;DHT22;400;53.550;9.932;2023-11-19T05:36:28;9.10;99.90
837;DHT22;400;53.550;9.932;2023-11-19T05:38:56;9.20;99.90
837;DHT22;400;53.550;9.932;2023-11-19T05:41:26;9.30;99.90
837;DHT22;400;53.550;9.932;2023-11-19T05:43:53;9.30;99.90
837;DHT22;400;53.550;9.932;2023-11-19T05:46:20;9.40;99.90
837;DHT22;400;53.550;9.932;2023-11-19T05:48:47;9.50;99.90
837;DHT22;400;53.550;9.932;2023-11-19T05:51:14;9.50;99.90
837;DHT22;400;53.550;9.932;2023-11-19T05:53:41;9.50;99.90
837;DHT22;400;53.550;9.932;2023-11-19T05:56:12;9.60;99.90
837;DHT22;400;53.550;9.932;2023-11-19T05:58:41;9.60;99.90
837;DHT22;400;53.550;9.932;2023-11-19T06:01:10;9.70;99.90
837;DHT22;400;53.550;9.932;2023-11-19T06:03:37;9.70;99.90
837;DHT22;400;53.550;9.932;2023-11-19T06:06:04;9.80;99.90
837;DHT22;400;53.550;9.932;2023-11-19T06:08:31;10.00;99.90
837;DHT22;400;53.550;9.932;2023-11-19T06:10:58;10.00;99.90
837;DHT22;400;53.550;9.932;2023-11-19T06:13:29;10.00;99.90
837;DHT22;400;53.550;9.932;2023-11-19T06:15:56;10.20;99.90
837;DHT22;400;53.550;9.932;2023-11-19T06:18:23;10.10;99.90
837;DHT22;400;53.550;9.932;2023-11-19T06:20:50;10.10;99.90
837;DHT22;400;53.550;9.932;2023-11-19T06:23:17;10.30;99.90
837;DHT22;400;53.550;9.932;2023-11-19T06:25:45;10.40;99.90
837;DHT22;400;53.550;9.932;2023-11-19T06:28:12;10.50;1.00
837;DHT22;400;53.550;9.932;2023-11-19T06:30:40;10.60;1.00
837;DHT22;400;53.550;9.932;2023-11-19T06:33:07;10.60;1.00
837;DHT22;400;53.550;9.932;2023-11-19T06:35:37;10.50;1.00
837;DHT22;400;53.550;9.932;2023-11-19T06:38:09;10.70;1.00
837;DHT22;400;53.550;9.932;2023-11-19T06:40:36;10.70;1.00
837;DHT22;400;53.550;9.932;2023-11-19T06:43:03;10.80;1.00
837;DHT22;400;53.550;9.932;2023-11-19T06:45:34;10.70;1.00
837;DHT22;400;53.550;9.932;2023-11-19T06:48:04;10.60;1.00
837;DHT22;400;53.550;9.932;2023-11-19T06:50:31;10.80;1.00
837;DHT22;400;53.550;9.932;2023-11-19T06:52:59;10.70;1.00
837;DHT22;400;53.550;9.932;2023-11-19T06:55:26;10.70;1.00
837;DHT22;400;53.550;9.932;2023-11-19T06:57:53;10.70;1.00
837;DHT22;400;53.550;9.932;2023-11-19T07:00:20;10.70;1.00
837;DHT22;400;53.550;9.932;2023-11-19T07:02:47;10.80;1.00
837;DHT22;400;53.550;9.932;2023-11-19T07:05:19;10.80;1.00
837;DHT22;400;53.550;9.932;2023-11-19T07:07:46;11.00;1.00
837;DHT22;400;53.550;9.932;2023-11-19T07:10:13;11.00;1.00
837;DHT22;400;53.550;9.932;2023-11-19T07:12:41;10.90;1.00
837;DHT22;400;53.550;9.932;2023-11-19T07:15:09;10.90;1.00
837;DHT22;400;53.550;9.932;2023-11-19T07:17:38;10.90;1.00
837;DHT22;400;53.550;9.932;2023-11-19T07:20:07;11.00;1.00
837;DHT22;400;53.550;9.932;2023-11-19T07:22:36;11.00;1.00
837;DHT22;400;53.550;9.932;2023-11-19T07:25:04;11.00;1.00
837;DHT22;400;53.550;9.932;2023-11-19T07:27:31;11.00;1.00
837;DHT22;400;53.550;9.932;2023-11-19T07:29:58;11.10;1.00
837;DHT22;400;53.550;9.932;2023-11-19T07:32:25;11.10;1.00
837;DHT22;400;53.550;9.932;2023-11-19T07:34:52;11.00;1.00
837;DHT22;400;53.550;9.932;2023-11-19T07:37:19;11.10;1.00
837;DHT22;400;53.550;9.932;2023-11-19T07:39:48;11.10;1.00
837;DHT22;400;53.550;9.932;2023-11-19T07:42:15;11.10;1.00
837;DHT22;400;53.550;9.932;2023-11-19T07:44:43;11.00;99.90
837;DHT22;400;53.550;9.932;2023-11-19T07:47:10;11.10;1.00
837;DHT22;400;53.550;9.932;2023-11-19T07:49:38;11.10;99.90
837;DHT22;400;53.550;9.932;2023-11-19T07:52:08;11.20;1.00
837;DHT22;400;53.550;9.932;2023-11-19T07:54:39;11.20;1.00
837;DHT22;400;53.550;9.932;2023-11-19T07:57:13;11.20;1.00
837;DHT22;400;53.550;9.932;2023-11-19T07:59:43;11.30;1.00
837;DHT22;400;53.550;9.932;2023-11-19T08:02:10;11.30;1.00
837;DHT22;400;53.550;9.932;2023-11-19T08:04:37;11.40;1.00
837;DHT22;400;53.550;9.932;2023-11-19T08:07:10;11.40;1.00
837;DHT22;400;53.550;9.932;2023-11-19T08:09:37;11.40;1.00
837;DHT22;400;53.550;9.932;2023-11-19T08:12:05;11.40;99.90
837;DHT22;400;53.550;9.932;2023-11-19T08:14:38;11.50;99.90
837;DHT22;400;53.550;9.932;2023-11-19T08:17:05;11.50;99.90
837;DHT22;400;53.550;9.932;2023-11-19T08:19:32;11.50;99.90
837;DHT22;400;53.550;9.932;2023-11-19T08:21:59;11.50;99.90
837;DHT22;400;53.550;9.932;2023-11-19T08:24:26;11.50;99.90
837;DHT22;400;53.550;9.932;2023-11-19T08:26:53;11.50;99.90
837;DHT22;400;53.550;9.932;2023-11-19T08:29:20;11.60;99.90
837;DHT22;400;53.550;9.932;2023-11-19T08:31:49;11.60;99.90
837;DHT22;400;53.550;9.932;2023-11-19T08:34:16;11.50;99.90
837;DHT22;400;53.550;9.932;2023-11-19T08:36:45;11.50;99.90
837;DHT22;400;53.550;9.932;2023-11-19T08:39:14;11.60;99.90
837;DHT22;400;53.550;9.932;2023-11-19T08:41:42;11.60;99.90
837;DHT22;400;53.550;9.932;2023-11-19T08:44:12;11.50;99.90
837;DHT22;400;53.550;9.932;2023-11-19T08:46:38;11.60;99.90
837;DHT22;400;53.550;9.932;2023-11-19T08:49:07;11.60;99.90
837;DHT22;400;53.550;9.932;2023-11-19T08:51:35;11.60;99.90
837;DHT22;400;53.550;9.932;2023-11-19T08:54:02;11.60;99.90
837;DHT22;400;53.550;9.932;2023-11-19T08:56:29;11.60;99.90
837;DHT22;400;53.550;9.932;2023-11-19T08:58:58;11.60;99.90
837;DHT22;400;53.550;9.932;2023-11-19T09:01:25;11.70;99.90
837;DHT22;400;53.550;9.932;2023-11-19T09:03:52;11.70;99.90
837;DHT22;400;53.550;9.932;2023-11-19T09:06:20;11.70;99.90
837;DHT22;400;53.550;9.932;2023-11-19T09:08:47;11.70;99.90
837;DHT22;400;53.550;9.932;2023-11-19T09:11:15;11.80;99.90
837;DHT22;400;53.550;9.932;2023-11-19T09:13:43;11.80;99.90
837;DHT22;400;53.550;9.932;2023-11-19T09:16:12;11.80;99.90
837;DHT22;400;53.550;9.932;2023-11-19T09:18:38;11.80;99.90
837;DHT22;400;53.550;9.932;2023-11-19T09:21:06;11.80;99.90
837;DHT22;400;53.550;9.932;2023-11-19T09:23:56;11.90;99.90
837;DHT22;400;53.550;9.932;2023-11-19T09:26:33;11.90;99.90
837;DHT22;400;53.550;9.932;2023-11-19T09:29:01;11.80;99.90
837;DHT22;400;53.550;9.932;2023-11-19T09:31:31;11.80;99.90
837;DHT22;400;53.550;9.932;2023-11-19T09:34:00;11.90;99.90
837;DHT22;400;53.550;9.932;2023-11-19T09:36:32;11.90;99.90
837;DHT22;400;53.550;9.932;2023-11-19T09:39:02;11.90;99.90
837;DHT22;400;53.550;9.932;2023-11-19T09:41:30;12.00;99.90
837;DHT22;400;53.550;9.932;2023-11-19T09:43:58;12.00;99.90
837;DHT22;400;53.550;9.932;2023-11-19T09:46:26;11.90;99.90
837;DHT22;400;53.550;9.932;2023-11-19T09:48:53;12.00;99.90
837;DHT22;400;53.550;9.932;2023-11-19T09:51:22;12.00;99.90
837;DHT22;400;53.550;9.932;2023-11-19T09:53:49;12.00;99.90
837;DHT22;400;53.550;9.932;2023-11-19T09:56:20;11.90;99.90
837;DHT22;400;53.550;9.932;2023-11-19T09:58:47;11.90;99.90
837;DHT22;400;53.550;9.932;2023-11-19T10:01:18;11.90;99.90
837;DHT22;400;53.550;9.932;2023-11-19T10:04:00;11.90;99.90
837;DHT22;400;53.550;9.932;2023-11-19T10:06:28;11.80;99.90
837;DHT22;400;53.550;9.932;2023-11-19T10:08:55;11.90;99.90
837;DHT22;400;53.550;9.932;2023-11-19T10:11:23;11.90;99.90
837;DHT22;400;53.550;9.932;2023-11-19T10:13:54;11.90;99.90
837;DHT22;400;53.550;9.932;2023-11-19T10:16:22;11.90;99.90
837;DHT22;400;53.550;9.932;2023-11-19T10:18:55;11.90;99.90
837;DHT22;400;53.550;9.932;2023-11-19T10:21:23;11.90;99.90
837;DHT22;400;53.550;9.932;2023-11-19T10:23:51;11.90;99.90
837;DHT22;400;53.550;9.932;2023-11-19T10:26:20;11.90;99.90
837;DHT22;400;53.550;9.932;2023-11-19T10:28:49;11.90;99.90
837;DHT22;400;53.550;9.932;2023-11-19T10:31:17;11.90;99.90
837;DHT22;400;53.550;9.932;2023-11-19T10:33:44;11.90;99.90
837;DHT22;400;53.550;9.932;2023-11-19T10:36:12;11.90;99.90
837;DHT22;400;53.550;9.932;2023-11-19T10:38:40;11.90;99.90
837;DHT22;400;53.550;9.932;2023-11-19T10:41:07;12.00;99.90
837;DHT22;400;53.550;9.932;2023-11-19T10:43:43;11.90;99.90
837;DHT22;400;53.550;9.932;2023-11-19T10:46:14;12.00;99.90
837;DHT22;400;53.550;9.932;2023-11-19T10:48:46;12.00;99.90
837;DHT22;400;53.550;9.932;2023-11-19T10:51:13;12.00;99.90
837;DHT22;400;53.550;9.932;2023-11-19T10:53:49;12.00;99.90
837;DHT22;400;53.550;9.932;2023-11-19T10:56:17;12.10;99.90
837;DHT22;400;53.550;9.932;2023-11-19T10:58:48;12.00;99.90
837;DHT22;400;53.550;9.932;2023-11-19T11:01:20;12.10;99.90
837;DHT22;400;53.550;9.932;2023-11-19T11:03:51;12.00;99.90
837;DHT22;400;53.550;9.932;2023-11-19T11:06:20;12.10;99.90
837;DHT22;400;53.550;9.932;2023-11-19T11:08:48;12.10;99.90
837;DHT22;400;53.550;9.932;2023-11-19T11:11:15;12.10;99.90
837;DHT22;400;53.550;9.932;2023-11-19T11:13:47;12.10;99.90
837;DHT22;400;53.550;9.932;2023-11-19T11:16:20;12.10;99.90
837;DHT22;400;53.550;9.932;2023-11-19T11:18:49;12.10;99.90
837;DHT22;400;53.550;9.932;2023-11-19T11:21:20;12.10;99.90
837;DHT22;400;53.550;9.932;2023-11-19T11:24:26;12.10;99.90
837;DHT22;400;53.550;9.932;2023-11-19T11:27:18;12.10;99.90
837;DHT22;400;53.550;9.932;2023-11-19T11:29:58;12.10;99.90
837;DHT22;400;53.550;9.932;2023-11-19T11:32:37;12.20;99.90
837;DHT22;400;53.550;9.932;2023-11-19T11:35:21;12.10;99.90
837;DHT22;400;53.550;9.932;2023-11-19T11:37:59;12.10;99.90
837;DHT22;400;53.550;9.932;2023-11-19T11:40:28;12.20;99.90
837;DHT22;400;53.550;9.932;2023-11-19T11:42:55;12.20;99.90
837;DHT22;400;53.550;9.932;2023-11-19T11:45:35;12.20;99.90
837;DHT22;400;53.550;9.932;2023-11-19T11:48:15;12.30;99.90
837;DHT22;400;53.550;9.932;2023-11-19T11:50:52;12.30;99.90
837;DHT22;400;53.550;9.932;2023-11-19T11:53:20;12.30;99.90
837;DHT22;400;53.550;9.932;2023-11-19T11:55:56;12.30;99.90
837;DHT22;400;53.550;9.932;2023-11-19T11:58:32;12.40;99.90
837;DHT22;400;53.550;9.932;2023-11-19T12:01:01;12.40;99.90
837;DHT22;400;53.550;9.932;2023-11-19T12:03:31;12.50;99.90
837;DHT22;400;53.550;9.932;2023-11-19T12:05:58;12.50;99.90
837;DHT22;400;53.550;9.932;2023-11-19T12:08:29;12.50;99.90
837;DHT22;400;53.550;9.932;2023-11-19T12:10:58;12.60;97.70
837;DHT22;400;53.550;9.932;2023-11-19T12:13:46;12.60;82.50
837;DHT22;400;53.550;9.932;2023-11-19T12:16:18;12.50;52.40
837;DHT22;400;53.550;9.932;2023-11-19T12:18:49;12.50;35.50
837;DHT22;400;53.550;9.932;2023-11-19T12:21:30;12.50;37.80
837;DHT22;400;53.550;9.932;2023-11-19T12:23:58;12.60;47.20
837;DHT22;400;53.550;9.932;2023-11-19T12:26:41;12.50;36.40
837;DHT22;400;53.550;9.932;2023-11-19T12:29:12;12.50;41.00
837;DHT22;400;53.550;9.932;2023-11-19T12:31:53;12.40;41.10
837;DHT22;400;53.550;9.932;2023-11-19T12:34:21;12.40;41.80
837;DHT22;400;53.550;9.932;2023-11-19T12:36:49;12.40;43.50
837;DHT22;400;53.550;9.932;2023-11-19T12:39:16;12.40;48.10
837;DHT22;400;53.550;9.932;2023-11-19T12:41:50;12.40;52.80
837;DHT22;400;53.550;9.932;2023-11-19T12:44:18;12.40;63.30
837;DHT22;400;53.550;9.932;2023-11-19T12:46:46;12.40;68.60
837;DHT22;400;53.550;9.932;2023-11-19T12:49:17;12.40;80.70
837;DHT22;400;53.550;9.932;2023-11-19T12:51:47;12.40;86.40
837;DHT22;400;53.550;9.932;2023-11-19T12:54:14;12.40;84.70
837;DHT22;400;53.550;9.932;2023-11-19T12:56:51;12.50;89.20
837;DHT22;400;53.550;9.932;2023-11-19T12:59:18;12.40;74.90
837;DHT22;400;53.550;9.932;2023-11-19T13:01:54;12.40;72.50
837;DHT22;400;53.550;9.932;2023-11-19T13:04:21;12.50;79.40
837;DHT22;400;53.550;9.932;2023-11-19T13:06:51;12.50;65.60
837;DHT22;400;53.550;9.932;2023-11-19T13:09:25;12.50;70.40
837;DHT22;400;53.550;9.932;2023-11-19T13:11:52;12.50;49.20
837;DHT22;400;53.550;9.932;2023-11-19T13:14:20;12.50;41.20
837;DHT22;400;53.550;9.932;2023-11-19T13:16:47;12.60;47.90
837;DHT22;400;53.550;9.932;2023-11-19T13:19:15;12.60;30.40
837;DHT22;400;53.550;9.932;2023-11-19T13:21:45;12.50;14.80
837;DHT22;400;53.550;9.932;2023-11-19T13:24:15;12.60;21.70
837;DHT22;400;53.550;9.932;2023-11-19T13:26:44;12.60;22.00
837;DHT22;400;53.550;9.932;2023-11-19T13:29:13;12.60;7.40
837;DHT22;400;53.550;9.932;2023-11-19T13:31:42;12.60;1.20
837;DHT22;400;53.550;9.932;2023-11-19T13:34:09;12.60;1.00
837;DHT22;400;53.550;9.932;2023-11-19T13:36:36;12.60;1.50
837;DHT22;400;53.550;9.932;2023-11-19T13:39:03;12.60;1.00
837;DHT22;400;53.550;9.932;2023-11-19T13:41:31;12.60;1.00
837;DHT22;400;53.550;9.932;2023-11-19T13:43:58;12.60;1.00
837;DHT22;400;53.550;9.932;2023-11-19T13:46:25;12.50;1.00
837;DHT22;400;53.550;9.932;2023-11-19T13:48:52;12.60;1.00
837;DHT22;400;53.550;9.932;2023-11-19T13:51:19;12.50;1.00
837;DHT22;400;53.550;9.932;2023-11-19T13:53:46;12.60;1.00
837;DHT22;400;53.550;9.932;2023-11-19T13:56:14;12.60;1.00
837;DHT22;400;53.550;9.932;2023-11-19T13:58:42;12.60;1.00
837;DHT22;400;53.550;9.932;2023-11-19T14:01:12;12.60;1.00
837;DHT22;400;53.550;9.932;2023-11-19T14:03:40;12.70;1.00
837;DHT22;400;53.550;9.932;2023-11-19T14:06:07;12.60;1.00
837;DHT22;400;53.550;9.932;2023-11-19T14:08:35;12.60;1.00
837;DHT22;400;53.550;9.932;2023-11-19T14:11:05;12.70;1.00
837;DHT22;400;53.550;9.932;2023-11-19T14:13:37;12.60;1.00
837;DHT22;400;53.550;9.932;2023-11-19T14:16:08;12.70;1.00
837;DHT22;400;53.550;9.932;2023-11-19T14:18:35;12.60;1.00
837;DHT22;400;53.550;9.932;2023-11-19T14:21:02;12.60;1.00
837;DHT22;400;53.550;9.932;2023-11-19T14:23:30;12.60;1.00
837;DHT22;400;53.550;9.932;2023-11-19T14:25:57;12.60;1.00
837;DHT22;400;53.550;9.932;2023-11-19T14:28:24;12.60;1.00
837;DHT22;400;53.550;9.932;2023-11-19T14:30:52;12.50;1.00
837;DHT22;400;53.550;9.932;2023-11-19T14:33:23;12.50;3.50
837;DHT22;400;53.550;9.932;2023-11-19T14:35:50;12.40;20.60
837;DHT22;400;53.550;9.932;2023-11-19T14:38:17;12.40;28.20
837;DHT22;400;53.550;9.932;2023-11-19T14:40:45;12.50;38.90
837;DHT22;400;53.550;9.932;2023-11-19T14:43:11;12.40;42.00
837;DHT22;400;53.550;9.932;2023-11-19T14:45:40;12.50;40.80
837;DHT22;400;53.550;9.932;2023-11-19T14:48:07;12.40;41.30
837;DHT22;400;53.550;9.932;2023-11-19T14:50:37;12.40;35.70
837;DHT22;400;53.550;9.932;2023-11-19T14:53:04;12.50;35.10
837;DHT22;400;53.550;9.932;2023-11-19T14:55:32;12.50;32.20
837;DHT22;400;53.550;9.932;2023-11-19T14:57:58;12.40;23.10
837;DHT22;400;53.550;9.932;2023-11-19T15:00:25;12.40;26.10
837;DHT22;400;53.550;9.932;2023-11-19T15:02:52;12.30;20.00
837;DHT22;400;53.550;9.932;2023-11-19T15:05:19;12.30;27.70
837;DHT22;400;53.550;9.932;2023-11-19T15:07:49;12.20;29.30
837;DHT22;400;53.550;9.932;2023-11-19T15:10:18;12.20;43.20
837;DHT22;400;53.550;9.932;2023-11-19T15:12:46;12.20;42.70
837;DHT22;400;53.550;9.932;2023-11-19T15:15:13;12.30;47.40
837;DHT22;400;53.550;9.932;2023-11-19T15:17:42;12.40;47.70
837;DHT22;400;53.550;9.932;2023-11-19T15:20:12;12.40;42.60
837;DHT22;400;53.550;9.932;2023-11-19T15:22:46;12.40;37.20
837;DHT22;400;53.550;9.932;2023-11-19T15:25:18;12.40;41.90
837;DHT22;400;53.550;9.932;2023-11-19T15:27:46;12.40;39.40
837;DHT22;400;53.550;9.932;2023-11-19T15:30:13;12.40;29.30
837;DHT22;400;53.550;9.932;2023-11-19T15:32:42;12.40;18.70
837;DHT22;400;53.550;9.932;2023-11-19T15:35:09;12.30;10.10
837;DHT22;400;53.550;9.932;2023-11-19T15:37:38;12.30;16.60
837;DHT22;400;53.550;9.932;2023-11-19T15:40:06;12.30;14.50
837;DHT22;400;53.550;9.932;2023-11-19T15:42:36;12.30;17.10
837;DHT22;400;53.550;9.932;2023-11-19T15:45:03;12.20;18.40
837;DHT22;400;53.550;9.932;2023-11-19T15:47:32;12.20;25.80
837;DHT22;400;53.550;9.932;2023-11-19T15:50:02;12.30;24.70
837;DHT22;400;53.550;9.932;2023-11-19T15:52:30;12.30;27.10
837;DHT22;400;53.550;9.932;2023-11-19T15:54:57;12.30;29.10
837;DHT22;400;53.550;9.932;2023-11-19T15:57:24;12.30;27.30
837;DHT22;400;53.550;9.932;2023-11-19T15:59:55;12.30;25.10
837;DHT22;400;53.550;9.932;2023-11-19T16:02:22;12.30;18.40
837;DHT22;400;53.550;9.932;2023-11-19T16:04:56;12.30;16.50
837;DHT22;400;53.550;9.932;2023-11-19T16:07:23;12.20;8.50
837;DHT22;400;53.550;9.932;2023-11-19T16:09:50;12.20;19.30
837;DHT22;400;53.550;9.932;2023-11-19T16:12:18;12.10;31.90
837;DHT22;400;53.550;9.932;2023-11-19T16:14:47;12.10;42.50
837;DHT22;400;53.550;9.932;2023-11-19T16:17:16;12.10;37.30
837;DHT22;400;53.550;9.932;2023-11-19T16:19:43;12.20;45.40
837;DHT22;400;53.550;9.932;2023-11-19T16:22:10;12.20;35.90
837;DHT22;400;53.550;9.932;2023-11-19T16:24:40;12.20;37.90
837;DHT22;400;53.550;9.932;2023-11-19T16:27:07;12.20;35.30
837;DHT22;400;53.550;9.932;2023-11-19T16:29:35;12.20;32.90
837;DHT22;400;53.550;9.932;2023-11-19T16:32:03;12.20;27.60
837;DHT22;400;53.550;9.932;2023-11-19T16:34:31;12.20;24.60
837;DHT22;400;53.550;9.932;2023-11-19T16:37:05;12.20;25.60
837;DHT22;400;53.550;9.932;2023-11-19T16:39:36;12.20;25.20
837;DHT22;400;53.550;9.932;2023-11-19T16:42:05;12.20;26.60
837;DHT22;400;53.550;9.932;2023-11-19T16:44:35;12.20;26.40
837;DHT22;400;53.550;9.932;2023-11-19T16:47:04;12.20;25.70
837;DHT22;400;53.550;9.932;2023-11-19T16:49:34;12.20;23.50
837;DHT22;400;53.550;9.932;2023-11-19T16:52:01;12.10;26.30
837;DHT22;400;53.550;9.932;2023-11-19T16:54:30;12.00;22.30
837;DHT22;400;53.550;9.932;2023-11-19T16:56:57;12.00;32.50